sensor_id;sensor_type;location;lat;lon;timestamp;pressure;altitude;pressure_sealevel;temperature;humidity
14295;BME280;7231;59.370;18.016;2024-03-08T00:00:39;102486.75;;;-0.43;71.79
14295;BME280;7231;59.370;18.016;2024-03-08T00:03:11;102470.09;;;-0.55;72.00
14295;BME280;7231;59.370;18.016;2024-03-08T00:05:39;102445.25;;;-0.72;71.93
14295;BME280;7231;59.370;18.016;2024-03-08T00:08:08;102504.97;;;-0.41;72.15
14295;BME280;7231;59.370;18.016;2024-03-08T00:10:37;102486.78;;;-0.51;72.01
14295;BME280;7231;59.370;18.016;2024-03-08T00:13:06;102504.06;;;-0.42;72.23
14295;BME280;7231;59.370;18.016;2024-03-08T00:15:34;102483.28;;;-0.52;72.07
14295;BME280;7231;59.370;18.016;2024-03-08T00:18:03;102496.47;;;-0.49;71.93
14295;BME280;7231;59.370;18.016;2024-03-08T00:20:32;102452.22;;;-0.79;72.19
14295;BME280;7231;59.370;18.016;2024-03-08T00:23:01;102496.78;;;-0.54;72.46
14295;BME280;7231;59.370;18.016;2024-03-08T00:25:29;102448.28;;;-0.84;72.22
14295;BME280;7231;59.370;18.016;2024-03-08T00:27:57;102494.06;;;-0.56;72.62
14295;BME280;7231;59.370;18.016;2024-03-08T00:30:26;102495.13;;;-0.54;72.70
14295;BME280;7231;59.370;18.016;2024-03-08T00:32:55;102489.19;;;-0.53;72.64
14295;BME280;7231;59.370;18.016;2024-03-08T00:35:23;102429.50;;;-0.83;72.42
14295;BME280;7231;59.370;18.016;2024-03-08T00:37:53;102482.22;;;-0.54;72.80
14295;BME280;7231;59.370;18.016;2024-03-08T00:40:23;102478.00;;;-0.62;72.68
14295;BME280;7231;59.370;18.016;2024-03-08T00:42:51;102481.63;;;-0.60;72.77
14295;BME280;7231;59.370;18.016;2024-03-08T00:45:20;102463.16;;;-0.73;72.67
14295;BME280;7231;59.370;18.016;2024-03-08T00:47:49;102468.28;;;-0.73;72.58
14295;BME280;7231;59.370;18.016;2024-03-08T00:50:17;102481.94;;;-0.66;72.97
14295;BME280;7231;59.370;18.016;2024-03-08T00:52:46;102481.16;;;-0.64;73.19
14295;BME280;7231;59.370;18.016;2024-03-08T00:55:16;102480.88;;;-0.68;73.04
14295;BME280;7231;59.370;18.016;2024-03-08T00:57:44;102471.94;;;-0.71;73.10
14295;BME280;7231;59.370;18.016;2024-03-08T01:00:13;102479.06;;;-0.69;72.79
14295;BME280;7231;59.370;18.016;2024-03-08T01:02:41;102424.66;;;-0.98;73.03
14295;BME280;7231;59.370;18.016;2024-03-08T01:05:09;102477.22;;;-0.70;72.96
14295;BME280;7231;59.370;18.016;2024-03-08T01:07:37;102481.31;;;-0.72;73.11
14295;BME280;7231;59.370;18.016;2024-03-08T01:10:06;102474.34;;;-0.73;73.36
14295;BME280;7231;59.370;18.016;2024-03-08T01:12:38;102475.88;;;-0.75;73.20
14295;BME280;7231;59.370;18.016;2024-03-08T01:15:07;102469.50;;;-0.78;73.34
14295;BME280;7231;59.370;18.016;2024-03-08T01:17:35;102469.34;;;-0.80;73.36
14295;BME280;7231;59.370;18.016;2024-03-08T01:20:06;102462.38;;;-0.89;73.43
14295;BME280;7231;59.370;18.016;2024-03-08T01:22:38;102472.22;;;-0.85;73.34
14295;BME280;7231;59.370;18.016;2024-03-08T01:25:07;102472.22;;;-0.85;73.55
14295;BME280;7231;59.370;18.016;2024-03-08T01:27:35;102473.00;;;-0.86;73.82
14295;BME280;7231;59.370;18.016;2024-03-08T01:30:06;102462.06;;;-0.92;73.48
14295;BME280;7231;59.370;18.016;2024-03-08T01:32:38;102471.00;;;-0.89;73.74
14295;BME280;7231;59.370;18.016;2024-03-08T01:35:07;102456.16;;;-0.91;73.77
14295;BME280;7231;59.370;18.016;2024-03-08T01:37:37;102414.66;;;-1.20;73.69
14295;BME280;7231;59.370;18.016;2024-03-08T01:40:06;102457.97;;;-0.99;74.13
14295;BME280;7231;59.370;18.016;2024-03-08T01:42:35;102465.09;;;-0.96;73.72
14295;BME280;7231;59.370;18.016;2024-03-08T01:45:07;102444.03;;;-1.10;74.18
14295;BME280;7231;59.370;18.016;2024-03-08T01:47:35;102462.97;;;-1.01;74.06
14295;BME280;7231;59.370;18.016;2024-03-08T01:50:04;102458.59;;;-1.02;74.09
14295;BME280;7231;59.370;18.016;2024-03-08T01:52:34;102458.44;;;-1.03;74.39
14295;BME280;7231;59.370;18.016;2024-03-08T01:55:03;102442.97;;;-1.12;74.29
14295;BME280;7231;59.370;18.016;2024-03-08T01:57:34;102452.66;;;-1.09;74.15
14295;BME280;7231;59.370;18.016;2024-03-08T02:00:07;102449.94;;;-1.11;74.39
14295;BME280;7231;59.370;18.016;2024-03-08T02:02:37;102448.88;;;-1.13;74.69
14295;BME280;7231;59.370;18.016;2024-03-08T02:05:10;102447.06;;;-1.14;74.48
14295;BME280;7231;59.370;18.016;2024-03-08T02:07:40;102446.91;;;-1.15;74.39
14295;BME280;7231;59.370;18.016;2024-03-08T02:10:10;102446.75;;;-1.17;74.48
14295;BME280;7231;59.370;18.016;2024-03-08T02:12:39;102424.50;;;-1.25;74.45
14295;BME280;7231;59.370;18.016;2024-03-08T02:15:09;102449.19;;;-1.18;74.64
14295;BME280;7231;59.370;18.016;2024-03-08T02:17:37;102438.13;;;-1.26;74.79
14295;BME280;7231;59.370;18.016;2024-03-08T02:20:06;102425.84;;;-1.28;74.80
14295;BME280;7231;59.370;18.016;2024-03-08T02:22:37;102433.41;;;-1.30;75.04
14295;BME280;7231;59.370;18.016;2024-03-08T02:25:07;102431.91;;;-1.28;75.02
14295;BME280;7231;59.370;18.016;2024-03-08T02:27:35;102422.81;;;-1.33;74.91
14295;BME280;7231;59.370;18.016;2024-03-08T02:30:07;102340.56;;;-1.83;74.81
14295;BME280;7231;59.370;18.016;2024-03-08T02:32:36;102440.38;;;-1.29;74.83
14295;BME280;7231;59.370;18.016;2024-03-08T02:35:05;102440.06;;;-1.32;75.06
14295;BME280;7231;59.370;18.016;2024-03-08T02:37:33;102440.81;;;-1.33;75.10
14295;BME280;7231;59.370;18.016;2024-03-08T02:40:04;102430.38;;;-1.35;75.29
14295;BME280;7231;59.370;18.016;2024-03-08T02:42:32;102437.94;;;-1.36;75.13
14295;BME280;7231;59.370;18.016;2024-03-08T02:45:00;102431.44;;;-1.41;75.23
14295;BME280;7231;59.370;18.016;2024-03-08T02:47:29;102429.28;;;-1.45;75.41
14295;BME280;7231;59.370;18.016;2024-03-08T02:49:58;102430.34;;;-1.43;75.24
14295;BME280;7231;59.370;18.016;2024-03-08T02:52:30;102421.72;;;-1.52;75.50
14295;BME280;7231;59.370;18.016;2024-03-08T02:54:58;102426.09;;;-1.51;75.69
14295;BME280;7231;59.370;18.016;2024-03-08T02:57:27;102411.72;;;-1.58;75.86
14295;BME280;7231;59.370;18.016;2024-03-08T02:59:56;102428.06;;;-1.49;76.03
14295;BME280;7231;59.370;18.016;2024-03-08T03:02:26;102415.34;;;-1.56;76.04
14295;BME280;7231;59.370;18.016;2024-03-08T03:04:54;102434.28;;;-1.47;76.04
14295;BME280;7231;59.370;18.016;2024-03-08T03:07:23;102429.75;;;-1.49;75.98
14295;BME280;7231;59.370;18.016;2024-03-08T03:09:54;102374.44;;;-1.79;76.02
14295;BME280;7231;59.370;18.016;2024-03-08T03:12:22;102432.16;;;-1.51;76.37
14295;BME280;7231;59.370;18.016;2024-03-08T03:14:52;102428.97;;;-1.48;76.44
14295;BME280;7231;59.370;18.016;2024-03-08T03:17:20;102429.59;;;-1.51;76.31
14295;BME280;7231;59.370;18.016;2024-03-08T03:19:48;102425.19;;;-1.52;76.25
14295;BME280;7231;59.370;18.016;2024-03-08T03:22:17;102424.28;;;-1.52;76.55
14295;BME280;7231;59.370;18.016;2024-03-08T03:24:46;102395.94;;;-1.70;76.68
14295;BME280;7231;59.370;18.016;2024-03-08T03:27:14;102429.28;;;-1.54;76.66
14295;BME280;7231;59.370;18.016;2024-03-08T03:29:43;102427.47;;;-1.55;76.81
14295;BME280;7231;59.370;18.016;2024-03-08T03:32:15;102432.44;;;-1.56;76.87
14295;BME280;7231;59.370;18.016;2024-03-08T03:34:45;102433.03;;;-1.59;76.90
14295;BME280;7231;59.370;18.016;2024-03-08T03:37:13;102415.91;;;-1.67;76.67
14295;BME280;7231;59.370;18.016;2024-03-08T03:39:41;102436.06;;;-1.63;76.95
14295;BME280;7231;59.370;18.016;2024-03-08T03:42:16;102426.38;;;-1.66;77.11
14295;BME280;7231;59.370;18.016;2024-03-08T03:44:44;102421.97;;;-1.67;77.15
14295;BME280;7231;59.370;18.016;2024-03-08T03:47:15;102424.56;;;-1.67;77.16
14295;BME280;7231;59.370;18.016;2024-03-08T03:49:44;102420.31;;;-1.66;77.45
14295;BME280;7231;59.370;18.016;2024-03-08T03:52:12;102418.50;;;-1.67;77.46
14295;BME280;7231;59.370;18.016;2024-03-08T03:54:42;102402.72;;;-1.79;77.40
14295;BME280;7231;59.370;18.016;2024-03-08T03:57:10;102418.19;;;-1.70;77.51
14295;BME280;7231;59.370;18.016;2024-03-08T03:59:40;102420.59;;;-1.72;77.56
14295;BME280;7231;59.370;18.016;2024-03-08T04:02:08;102421.34;;;-1.73;77.82
14295;BME280;7231;59.370;18.016;2024-03-08T04:04:38;102407.56;;;-1.82;78.01
14295;BME280;7231;59.370;18.016;2024-03-08T04:07:06;102398.47;;;-1.87;77.86
14295;BME280;7231;59.370;18.016;2024-03-08T04:09:35;102419.22;;;-1.77;78.16
14295;BME280;7231;59.370;18.016;2024-03-08T04:12:03;102419.97;;;-1.78;78.20
14295;BME280;7231;59.370;18.016;2024-03-08T04:14:32;102409.97;;;-1.83;78.35
14295;BME280;7231;59.370;18.016;2024-03-08T04:17:02;102407.56;;;-1.82;78.59
14295;BME280;7231;59.370;18.016;2024-03-08T04:19:30;102378.47;;;-1.98;78.86
14295;BME280;7231;59.370;18.016;2024-03-08T04:22:00;102411.94;;;-1.81;78.86
14295;BME280;7231;59.370;18.016;2024-03-08T04:24:29;102410.59;;;-1.77;79.02
14295;BME280;7231;59.370;18.016;2024-03-08T04:26:58;102416.66;;;-1.77;79.21
14295;BME280;7231;59.370;18.016;2024-03-08T04:29:26;102406.97;;;-1.79;79.21
14295;BME280;7231;59.370;18.016;2024-03-08T04:31:54;102402.09;;;-1.85;79.29
14295;BME280;7231;59.370;18.016;2024-03-08T04:34:22;102386.53;;;-1.86;79.56
14295;BME280;7231;59.370;18.016;2024-03-08T04:36:51;102402.56;;;-1.80;79.54
14295;BME280;7231;59.370;18.016;2024-03-08T04:39:21;102395.31;;;-1.84;79.48
14295;BME280;7231;59.370;18.016;2024-03-08T04:41:50;102387.56;;;-1.93;80.09
14295;BME280;7231;59.370;18.016;2024-03-08T04:44:18;102400.28;;;-1.86;79.98
14295;BME280;7231;59.370;18.016;2024-03-08T04:46:46;102401.03;;;-1.87;80.12
14295;BME280;7231;59.370;18.016;2024-03-08T04:49:14;102397.41;;;-1.89;80.08
14295;BME280;7231;59.370;18.016;2024-03-08T04:51:43;102393.91;;;-1.89;80.23
14295;BME280;7231;59.370;18.016;2024-03-08T04:54:14;102393.75;;;-1.91;80.63
14295;BME280;7231;59.370;18.016;2024-03-08T04:56:43;102381.19;;;-1.97;80.51
14295;BME280;7231;59.370;18.016;2024-03-08T04:59:12;102397.84;;;-1.93;80.76
14295;BME280;7231;59.370;18.016;2024-03-08T05:01:40;102386.78;;;-2.01;81.06
14295;BME280;7231;59.370;18.016;2024-03-08T05:04:08;102394.19;;;-1.95;81.06
14295;BME280;7231;59.370;18.016;2024-03-08T05:06:37;102394.97;;;-1.96;81.29
14295;BME280;7231;59.370;18.016;2024-03-08T05:09:05;102394.03;;;-1.97;81.37
14295;BME280;7231;59.370;18.016;2024-03-08T05:11:41;102369.97;;;-2.06;81.49
14295;BME280;7231;59.370;18.016;2024-03-08T05:14:11;102386.34;;;-1.97;81.51
14295;BME280;7231;59.370;18.016;2024-03-08T05:16:42;102284.56;;;-2.53;81.76
14295;BME280;7231;59.370;18.016;2024-03-08T05:19:16;102394.81;;;-1.98;81.83
14295;BME280;7231;59.370;18.016;2024-03-08T05:21:44;102376.19;;;-2.04;82.16
14295;BME280;7231;59.370;18.016;2024-03-08T05:24:13;102403.41;;;-1.97;82.15
14295;BME280;7231;59.370;18.016;2024-03-08T05:26:42;102335.72;;;-2.31;82.31
14295;BME280;7231;59.370;18.016;2024-03-08T05:29:12;102395.72;;;-1.97;82.41
14295;BME280;7231;59.370;18.016;2024-03-08T05:31:46;102394.81;;;-1.98;82.49
14295;BME280;7231;59.370;18.016;2024-03-08T05:34:14;102372.69;;;-2.04;82.81
14295;BME280;7231;59.370;18.016;2024-03-08T05:36:43;102376.03;;;-2.05;82.96
14295;BME280;7231;59.370;18.016;2024-03-08T05:39:13;102374.50;;;-2.03;83.07
14295;BME280;7231;59.370;18.016;2024-03-08T05:41:41;102368.78;;;-2.01;83.42
14295;BME280;7231;59.370;18.016;2024-03-08T05:44:12;102388.63;;;-1.91;83.49
14295;BME280;7231;59.370;18.016;2024-03-08T05:46:40;102365.47;;;-2.00;83.51
14295;BME280;7231;59.370;18.016;2024-03-08T05:49:09;102380.16;;;-1.90;83.53
14295;BME280;7231;59.370;18.016;2024-03-08T05:51:39;102392.72;;;-1.84;83.95
14295;BME280;7231;59.370;18.016;2024-03-08T05:54:09;102387.75;;;-1.83;84.00
14295;BME280;7231;59.370;18.016;2024-03-08T05:56:41;102358.22;;;-1.95;83.86
14295;BME280;7231;59.370;18.016;2024-03-08T05:59:13;102384.72;;;-1.79;84.20
14295;BME280;7231;59.370;18.016;2024-03-08T06:01:42;102373.38;;;-1.81;84.41
14295;BME280;7231;59.370;18.016;2024-03-08T06:04:10;102391.56;;;-1.71;84.32
14295;BME280;7231;59.370;18.016;2024-03-08T06:06:39;102390.97;;;-1.68;84.68
14295;BME280;7231;59.370;18.016;2024-03-08T06:09:08;102395.66;;;-1.64;84.80
14295;BME280;7231;59.370;18.016;2024-03-08T06:11:39;102392.50;;;-1.61;84.93
14295;BME280;7231;59.370;18.016;2024-03-08T06:14:09;102391.88;;;-1.59;85.12
14295;BME280;7231;59.370;18.016;2024-03-08T06:16:39;102391.59;;;-1.53;85.03
14295;BME280;7231;59.370;18.016;2024-03-08T06:19:07;102392.22;;;-1.47;85.17
14295;BME280;7231;59.370;18.016;2024-03-08T06:21:35;102167.47;;;-2.69;85.24
14295;BME280;7231;59.370;18.016;2024-03-08T06:24:04;102374.97;;;-1.48;85.64
14295;BME280;7231;59.370;18.016;2024-03-08T06:26:32;102396.03;;;-1.35;85.74
14295;BME280;7231;59.370;18.016;2024-03-08T06:29:04;102325.00;;;-1.68;85.79
14295;BME280;7231;59.370;18.016;2024-03-08T06:31:34;102272.19;;;-1.90;85.89
14295;BME280;7231;59.370;18.016;2024-03-08T06:34:07;102391.66;;;-1.19;86.08
14295;BME280;7231;59.370;18.016;2024-03-08T06:36:36;102396.50;;;-1.05;86.66
14295;BME280;7231;59.370;18.016;2024-03-08T06:39:05;102397.09;;;-0.73;87.50
14295;BME280;7231;59.370;18.016;2024-03-08T06:41:37;102389.09;;;-0.22;87.12
14295;BME280;7231;59.370;18.016;2024-03-08T06:44:05;102392.44;;;0.31;86.85
14295;BME280;7231;59.370;18.016;2024-03-08T06:46:35;102378.91;;;0.80;86.07
14295;BME280;7231;59.370;18.016;2024-03-08T06:49:05;102390.84;;;1.26;85.55
14295;BME280;7231;59.370;18.016;2024-03-08T06:51:35;102385.69;;;1.55;85.28
14295;BME280;7231;59.370;18.016;2024-03-08T06:54:07;102383.53;;;1.70;84.86
14295;BME280;7231;59.370;18.016;2024-03-08T06:56:36;102384.84;;;1.75;84.63
14295;BME280;7231;59.370;18.016;2024-03-08T06:59:05;102383.66;;;1.71;83.72
14295;BME280;7231;59.370;18.016;2024-03-08T07:01:33;102391.66;;;1.64;84.46
14295;BME280;7231;59.370;18.016;2024-03-08T07:04:03;102345.78;;;1.33;83.86
14295;BME280;7231;59.370;18.016;2024-03-08T07:06:34;102379.69;;;1.46;84.03
14295;BME280;7231;59.370;18.016;2024-03-08T07:09:03;102401.88;;;1.62;84.13
14295;BME280;7231;59.370;18.016;2024-03-08T07:11:34;102394.84;;;1.90;85.96
14295;BME280;7231;59.370;18.016;2024-03-08T07:14:03;102365.56;;;2.20;87.79
14295;BME280;7231;59.370;18.016;2024-03-08T07:16:33;102391.69;;;2.84;88.08
14295;BME280;7231;59.370;18.016;2024-03-08T07:19:02;102388.47;;;3.39;88.17
14295;BME280;7231;59.370;18.016;2024-03-08T07:21:32;102381.13;;;3.87;87.42
14295;BME280;7231;59.370;18.016;2024-03-08T07:24:01;102371.06;;;4.36;86.01
14295;BME280;7231;59.370;18.016;2024-03-08T07:26:51;102370.88;;;4.89;84.82
14295;BME280;7231;59.370;18.016;2024-03-08T07:29:19;102363.06;;;5.25;83.77
14295;BME280;7231;59.370;18.016;2024-03-08T07:31:48;102370.81;;;5.71;81.40
14295;BME280;7231;59.370;18.016;2024-03-08T07:34:28;102375.88;;;5.93;80.12
14295;BME280;7231;59.370;18.016;2024-03-08T07:36:58;102343.81;;;6.06;79.02
14295;BME280;7231;59.370;18.016;2024-03-08T07:39:28;102374.16;;;6.55;77.70
14295;BME280;7231;59.370;18.016;2024-03-08T07:41:56;102371.81;;;6.84;76.23
14295;BME280;7231;59.370;18.016;2024-03-08T07:44:25;102373.47;;;7.09;75.10
14295;BME280;7231;59.370;18.016;2024-03-08T07:46:53;102374.47;;;7.51;73.89
14295;BME280;7231;59.370;18.016;2024-03-08T07:49:24;102367.97;;;7.85;72.41
14295;BME280;7231;59.370;18.016;2024-03-08T07:51:52;102360.97;;;8.12;70.31
14295;BME280;7231;59.370;18.016;2024-03-08T07:54:20;102357.13;;;8.48;69.31
14295;BME280;7231;59.370;18.016;2024-03-08T07:56:50;102356.16;;;8.75;67.84
14295;BME280;7231;59.370;18.016;2024-03-08T07:59:18;102359.84;;;9.08;66.89
14295;BME280;7231;59.370;18.016;2024-03-08T08:01:47;102348.28;;;9.34;65.58
14295;BME280;7231;59.370;18.016;2024-03-08T08:04:16;102359.06;;;9.55;64.69
14295;BME280;7231;59.370;18.016;2024-03-08T08:06:45;102355.59;;;9.87;63.39
14295;BME280;7231;59.370;18.016;2024-03-08T08:09:13;102320.41;;;10.15;62.27
14295;BME280;7231;59.370;18.016;2024-03-08T08:11:42;102335.19;;;10.63;61.09
14295;BME280;7231;59.370;18.016;2024-03-08T08:14:12;102343.53;;;11.06;59.64
14295;BME280;7231;59.370;18.016;2024-03-08T08:16:40;102354.84;;;11.41;58.41
14295;BME280;7231;59.370;18.016;2024-03-08T08:19:09;102354.16;;;11.62;57.50
14295;BME280;7231;59.370;18.016;2024-03-08T08:21:41;102357.63;;;11.79;56.73
14295;BME280;7231;59.370;18.016;2024-03-08T08:24:09;102343.94;;;11.86;55.97
14295;BME280;7231;59.370;18.016;2024-03-08T08:26:37;102338.97;;;11.92;55.72
14295;BME280;7231;59.370;18.016;2024-03-08T08:29:06;102335.66;;;11.96;55.16
14295;BME280;7231;59.370;18.016;2024-03-08T08:31:36;102327.09;;;12.00;54.30
14295;BME280;7231;59.370;18.016;2024-03-08T08:34:04;102335.31;;;12.08;54.40
14295;BME280;7231;59.370;18.016;2024-03-08T08:36:33;102328.75;;;12.18;53.50
14295;BME280;7231;59.370;18.016;2024-03-08T08:39:01;102333.19;;;12.19;52.99
14295;BME280;7231;59.370;18.016;2024-03-08T08:41:30;102332.44;;;12.21;53.11
14295;BME280;7231;59.370;18.016;2024-03-08T08:43:58;102338.44;;;12.38;52.62
14295;BME280;7231;59.370;18.016;2024-03-08T08:46:42;102317.03;;;12.50;52.16
14295;BME280;7231;59.370;18.016;2024-03-08T08:49:11;102333.69;;;12.70;51.75
14295;BME280;7231;59.370;18.016;2024-03-08T08:51:41;102328.81;;;12.79;51.59
14295;BME280;7231;59.370;18.016;2024-03-08T08:54:10;102334.19;;;12.61;51.38
14295;BME280;7231;59.370;18.016;2024-03-08T08:56:41;102332.72;;;12.67;51.28
14295;BME280;7231;59.370;18.016;2024-03-08T08:59:10;102332.41;;;12.81;50.94
14295;BME280;7231;59.370;18.016;2024-03-08T09:01:40;102305.25;;;12.82;50.25
14295;BME280;7231;59.370;18.016;2024-03-08T09:04:10;102313.44;;;13.10;49.90
14295;BME280;7231;59.370;18.016;2024-03-08T09:06:39;102325.97;;;13.37;49.45
14295;BME280;7231;59.370;18.016;2024-03-08T09:09:09;102328.38;;;13.53;48.99
14295;BME280;7231;59.370;18.016;2024-03-08T09:11:37;102319.28;;;13.45;48.62
14295;BME280;7231;59.370;18.016;2024-03-08T09:14:08;102294.59;;;13.43;48.47
14295;BME280;7231;59.370;18.016;2024-03-08T09:16:39;102318.31;;;13.65;48.34
14295;BME280;7231;59.370;18.016;2024-03-08T09:19:07;102314.72;;;13.63;47.86
14295;BME280;7231;59.370;18.016;2024-03-08T09:21:39;102300.16;;;13.50;47.77
14295;BME280;7231;59.370;18.016;2024-03-08T09:24:07;102308.38;;;13.58;48.07
14295;BME280;7231;59.370;18.016;2024-03-08T09:26:35;102306.69;;;13.82;47.63
14295;BME280;7231;59.370;18.016;2024-03-08T09:29:04;102287.72;;;13.92;46.72
14295;BME280;7231;59.370;18.016;2024-03-08T09:31:33;102311.75;;;14.24;46.46
14295;BME280;7231;59.370;18.016;2024-03-08T09:34:02;102302.50;;;14.35;46.33
14295;BME280;7231;59.370;18.016;2024-03-08T09:36:30;102278.16;;;14.42;45.45
14295;BME280;7231;59.370;18.016;2024-03-08T09:39:02;102287.41;;;14.55;44.96
14295;BME280;7231;59.370;18.016;2024-03-08T09:41:35;102297.38;;;14.64;45.00
14295;BME280;7231;59.370;18.016;2024-03-08T09:44:05;102298.44;;;14.69;44.92
14295;BME280;7231;59.370;18.016;2024-03-08T09:46:34;102298.00;;;14.82;44.47
14295;BME280;7231;59.370;18.016;2024-03-08T09:49:02;102287.84;;;14.94;44.42
14295;BME280;7231;59.370;18.016;2024-03-08T09:51:34;102288.19;;;14.78;43.87
14295;BME280;7231;59.370;18.016;2024-03-08T09:54:04;102275.09;;;14.81;43.84
14295;BME280;7231;59.370;18.016;2024-03-08T09:56:43;102252.47;;;14.89;43.68
14295;BME280;7231;59.370;18.016;2024-03-08T09:59:11;102284.72;;;15.06;43.41
14295;BME280;7231;59.370;18.016;2024-03-08T10:02:13;102285.69;;;15.08;42.84
14295;BME280;7231;59.370;18.016;2024-03-08T10:04:43;102287.56;;;15.12;43.02
14295;BME280;7231;59.370;18.016;2024-03-08T10:07:14;102285.94;;;15.15;42.72
14295;BME280;7231;59.370;18.016;2024-03-08T10:09:44;102279.50;;;15.07;42.18
14295;BME280;7231;59.370;18.016;2024-03-08T10:12:17;102274.56;;;14.91;42.36
14295;BME280;7231;59.370;18.016;2024-03-08T10:14:46;102266.31;;;14.82;42.21
14295;BME280;7231;59.370;18.016;2024-03-08T10:17:14;102282.53;;;14.92;42.37
14295;BME280;7231;59.370;18.016;2024-03-08T10:19:51;102267.91;;;14.77;42.16
14295;BME280;7231;59.370;18.016;2024-03-08T10:22:20;102281.56;;;14.90;42.36
14295;BME280;7231;59.370;18.016;2024-03-08T10:24:50;102283.84;;;14.80;41.95
14295;BME280;7231;59.370;18.016;2024-03-08T10:27:19;102253.56;;;14.69;42.26
14295;BME280;7231;59.370;18.016;2024-03-08T10:29:47;102275.09;;;15.08;42.11
14295;BME280;7231;59.370;18.016;2024-03-08T10:32:18;102254.38;;;14.93;41.89
14295;BME280;7231;59.370;18.016;2024-03-08T10:34:47;102287.25;;;15.30;41.80
14295;BME280;7231;59.370;18.016;2024-03-08T10:37:21;102281.38;;;15.38;40.86
14295;BME280;7231;59.370;18.016;2024-03-08T10:40:00;102291.53;;;15.53;40.41
14295;BME280;7231;59.370;18.016;2024-03-08T10:42:40;102284.81;;;15.64;40.66
14295;BME280;7231;59.370;18.016;2024-03-08T10:45:15;102285.94;;;15.72;40.30
14295;BME280;7231;59.370;18.016;2024-03-08T10:47:47;102289.25;;;15.65;40.02
14295;BME280;7231;59.370;18.016;2024-03-08T10:50:18;102295.56;;;15.70;40.21
14295;BME280;7231;59.370;18.016;2024-03-08T10:52:49;102286.97;;;15.77;40.05
14295;BME280;7231;59.370;18.016;2024-03-08T10:55:20;102284.00;;;15.67;39.82
14295;BME280;7231;59.370;18.016;2024-03-08T10:57:48;102279.53;;;15.64;40.26
14295;BME280;7231;59.370;18.016;2024-03-08T11:00:18;102285.09;;;15.73;40.15
14295;BME280;7231;59.370;18.016;2024-03-08T11:02:53;102275.31;;;15.71;39.88
14295;BME280;7231;59.370;18.016;2024-03-08T11:05:32;102278.38;;;15.84;39.04
14295;BME280;7231;59.370;18.016;2024-03-08T11:08:16;102279.44;;;15.91;38.69
14295;BME280;7231;59.370;18.016;2024-03-08T11:10:49;102273.22;;;15.89;39.00
14295;BME280;7231;59.370;18.016;2024-03-08T11:13:33;102273.44;;;15.97;38.61
14295;BME280;7231;59.370;18.016;2024-03-08T11:16:02;102262.59;;;15.87;38.78
14295;BME280;7231;59.370;18.016;2024-03-08T11:18:32;102272.81;;;15.75;38.95
14295;BME280;7231;59.370;18.016;2024-03-08T11:21:02;102275.72;;;15.84;38.84
14295;BME280;7231;59.370;18.016;2024-03-08T11:23:34;102271.56;;;15.93;38.89
14295;BME280;7231;59.370;18.016;2024-03-08T11:26:17;102259.94;;;15.87;38.41
14295;BME280;7231;59.370;18.016;2024-03-08T11:28:46;102274.88;;;15.85;39.19
14295;BME280;7231;59.370;18.016;2024-03-08T11:31:24;102259.09;;;15.88;38.25
14295;BME280;7231;59.370;18.016;2024-03-08T11:33:54;102266.41;;;15.97;38.73
14295;BME280;7231;59.370;18.016;2024-03-08T11:36:26;102254.38;;;15.78;38.47
14295;BME280;7231;59.370;18.016;2024-03-08T11:38:57;102269.38;;;15.78;38.29
14295;BME280;7231;59.370;18.016;2024-03-08T11:41:27;102262.78;;;15.94;38.46
14295;BME280;7231;59.370;18.016;2024-03-08T11:44:04;102262.44;;;16.13;38.04
14295;BME280;7231;59.370;18.016;2024-03-08T11:46:33;102257.91;;;16.09;37.93
14295;BME280;7231;59.370;18.016;2024-03-08T11:49:02;102256.81;;;16.01;38.17
14295;BME280;7231;59.370;18.016;2024-03-08T11:51:32;102251.28;;;15.93;38.06
14295;BME280;7231;59.370;18.016;2024-03-08T11:54:00;102248.78;;;15.98;37.87
14295;BME280;7231;59.370;18.016;2024-03-08T11:56:31;102255.72;;;15.94;37.95
14295;BME280;7231;59.370;18.016;2024-03-08T11:59:00;102247.31;;;15.77;38.35
14295;BME280;7231;59.370;18.016;2024-03-08T12:01:29;102249.00;;;15.75;37.79
14295;BME280;7231;59.370;18.016;2024-03-08T12:03:58;102247.69;;;15.61;37.77
14295;BME280;7231;59.370;18.016;2024-03-08T12:06:27;102247.53;;;15.55;37.74
14295;BME280;7231;59.370;18.016;2024-03-08T12:09:04;102248.22;;;15.49;37.92
14295;BME280;7231;59.370;18.016;2024-03-08T12:11:33;102226.03;;;15.16;37.92
14295;BME280;7231;59.370;18.016;2024-03-08T12:14:02;102238.91;;;15.05;38.17
14295;BME280;7231;59.370;18.016;2024-03-08T12:16:31;102249.25;;;14.98;38.14
14295;BME280;7231;59.370;18.016;2024-03-08T12:19:00;102247.13;;;14.87;38.28
14295;BME280;7231;59.370;18.016;2024-03-08T12:21:31;102250.66;;;14.61;38.51
14295;BME280;7231;59.370;18.016;2024-03-08T12:24:03;102242.69;;;14.36;38.59
14295;BME280;7231;59.370;18.016;2024-03-08T12:26:33;102250.47;;;14.07;38.95
14295;BME280;7231;59.370;18.016;2024-03-08T12:29:16;102247.09;;;14.11;39.15
14295;BME280;7231;59.370;18.016;2024-03-08T12:31:51;102246.91;;;14.30;38.82
14295;BME280;7231;59.370;18.016;2024-03-08T12:34:20;102244.53;;;14.62;38.66
14295;BME280;7231;59.370;18.016;2024-03-08T12:36:50;102234.59;;;14.80;38.25
14295;BME280;7231;59.370;18.016;2024-03-08T12:39:22;102245.28;;;15.12;37.81
14295;BME280;7231;59.370;18.016;2024-03-08T12:41:56;102239.41;;;15.49;37.73
14295;BME280;7231;59.370;18.016;2024-03-08T12:44:26;102251.03;;;15.84;37.02
14295;BME280;7231;59.370;18.016;2024-03-08T12:46:55;102252.22;;;15.95;36.82
14295;BME280;7231;59.370;18.016;2024-03-08T12:49:27;102247.69;;;15.91;36.79
14295;BME280;7231;59.370;18.016;2024-03-08T12:51:55;102231.63;;;15.83;36.49
14295;BME280;7231;59.370;18.016;2024-03-08T12:54:23;102250.22;;;15.86;36.68
14295;BME280;7231;59.370;18.016;2024-03-08T12:56:51;102244.03;;;15.86;36.56
14295;BME280;7231;59.370;18.016;2024-03-08T12:59:23;102239.78;;;15.91;36.60
14295;BME280;7231;59.370;18.016;2024-03-08T13:01:51;102238.19;;;15.98;36.63
14295;BME280;7231;59.370;18.016;2024-03-08T13:04:21;102235.88;;;16.10;36.37